createdAt,value
2022-09-18T00:01:20.708Z,15.65
2022-09-18T00:03:47.734Z,15.36
2022-09-18T00:06:20.554Z,14.95
2022-09-18T00:08:51.256Z,14.60
2022-09-18T00:11:18.844Z,14.41
2022-09-18T00:13:46.351Z,14.00
2022-09-18T00:16:15.533Z,13.84
2022-09-18T00:18:43.397Z,13.78
2022-09-18T00:21:21.029Z,13.65
2022-09-18T00:23:48.154Z,13.35
2022-09-18T00:26:16.481Z,13.09
2022-09-18T00:28:43.931Z,13.02
2022-09-18T00:31:13.840Z,12.84
2022-09-18T00:33:40.820Z,12.75
2022-09-18T00:36:11.091Z,12.54
2022-09-18T00:38:37.973Z,12.52
2022-09-18T00:41:08.093Z,12.17
2022-09-18T00:43:36.549Z,12.19
2022-09-18T00:46:07.907Z,12.08
2022-09-18T00:48:44.331Z,11.82
2022-09-18T00:51:11.949Z,11.69
2022-09-18T00:53:42.440Z,11.58
2022-09-18T00:56:14.103Z,11.48
2022-09-18T00:58:41.117Z,11.40
2022-09-18T01:01:09.118Z,11.31
2022-09-18T01:03:35.910Z,11.11
2022-09-18T01:06:15.667Z,11.06
2022-09-18T01:09:00.503Z,10.81
2022-09-18T01:11:32.859Z,10.62
2022-09-18T01:14:18.034Z,10.62
2022-09-18T01:17:13.760Z,10.51
2022-09-18T01:20:18.801Z,10.34
2022-09-18T01:23:26.608Z,10.12
2022-09-18T01:26:17.359Z,9.92
2022-09-18T01:28:51.159Z,9.88
2022-09-18T01:31:27.806Z,9.82
2022-09-18T01:34:04.307Z,9.71
2022-09-18T01:36:34.626Z,9.59
2022-09-18T01:39:19.366Z,9.55
2022-09-18T01:41:51.464Z,9.51
2022-09-18T01:44:23.882Z,9.44
2022-09-18T01:46:51.253Z,9.32
2022-09-18T01:49:25.811Z,9.42
2022-09-18T01:52:05.256Z,9.40
2022-09-18T01:54:37.774Z,9.31
2022-09-18T01:57:09.793Z,9.42
2022-09-18T01:59:56.750Z,9.31
2022-09-18T02:02:42.267Z,9.43
2022-09-18T02:05:15.129Z,9.32
2022-09-18T02:08:01.815Z,9.24
2022-09-18T02:10:31.887Z,9.33
2022-09-18T02:13:02.745Z,9.19
2022-09-18T02:15:32.502Z,9.24
2022-09-18T02:18:10.255Z,9.21
2022-09-18T02:20:38.417Z,9.28
2022-09-18T02:23:07.735Z,9.25
2022-09-18T02:25:43.257Z,9.33
2022-09-18T02:28:14.004Z,9.34
2022-09-18T02:30:41.140Z,9.39
2022-09-18T02:33:27.627Z,9.37
2022-09-18T02:36:35.794Z,9.24
2022-09-18T02:39:04.982Z,9.22
2022-09-18T02:41:50.199Z,9.22
2022-09-18T02:44:25.354Z,9.24
2022-09-18T02:47:24.332Z,9.12
2022-09-18T02:50:04.299Z,9.10
2022-09-18T02:52:42.676Z,9.06
2022-09-18T02:55:17.244Z,8.99
2022-09-18T02:58:03.118Z,8.89
2022-09-18T03:00:31.890Z,8.82
2022-09-18T03:03:00.432Z,8.78
2022-09-18T03:05:27.224Z,8.84
2022-09-18T03:07:55.612Z,8.67
2022-09-18T03:10:22.186Z,8.72
2022-09-18T03:12:48.770Z,8.65
2022-09-18T03:15:15.449Z,8.73
2022-09-18T03:17:42.089Z,8.87
2022-09-18T03:20:09.041Z,8.67
2022-09-18T03:22:36.128Z,8.79
2022-09-18T03:25:02.831Z,8.79
2022-09-18T03:27:29.617Z,8.83
2022-09-18T03:29:56.807Z,8.78
2022-09-18T03:32:23.489Z,8.86
2022-09-18T03:34:50.084Z,8.96
2022-09-18T03:37:16.645Z,8.81
2022-09-18T03:39:43.211Z,8.79
2022-09-18T03:42:09.809Z,8.74
2022-09-18T03:44:36.431Z,8.68
2022-09-18T03:47:03.086Z,8.73
2022-09-18T03:49:29.705Z,8.75
2022-09-18T03:51:56.317Z,8.76
2022-09-18T03:54:23.124Z,8.83
2022-09-18T03:56:49.761Z,8.65
2022-09-18T03:59:16.440Z,8.81
2022-09-18T04:01:43.026Z,8.80
2022-09-18T04:04:09.712Z,8.67
2022-09-18T04:06:36.298Z,8.63
2022-09-18T04:09:03.042Z,8.67
2022-09-18T04:11:29.692Z,8.61
2022-09-18T04:13:56.240Z,8.54
2022-09-18T04:16:22.988Z,8.44
2022-09-18T04:18:49.740Z,8.43
2022-09-18T04:21:16.317Z,8.61
2022-09-18T04:23:43.004Z,8.50
2022-09-18T04:26:10.373Z,8.44
2022-09-18T04:28:37.660Z,8.44
2022-09-18T04:31:04.830Z,8.44
2022-09-18T04:33:31.473Z,8.51
2022-09-18T04:35:58.073Z,8.50
2022-09-18T04:38:27.743Z,8.44
2022-09-18T04:40:56.277Z,8.47
2022-09-18T04:43:24.459Z,8.55
2022-09-18T04:45:51.213Z,8.39
2022-09-18T04:48:18.980Z,8.50
2022-09-18T04:50:46.907Z,8.50
2022-09-18T04:53:14.156Z,8.52
2022-09-18T04:55:43.257Z,8.44
2022-09-18T04:58:10.230Z,8.44
2022-09-18T05:00:38.311Z,8.46
2022-09-18T05:03:06.032Z,8.49
2022-09-18T05:05:32.844Z,8.41
2022-09-18T05:08:00.531Z,8.54
2022-09-18T05:10:28.123Z,8.36
2022-09-18T05:12:54.728Z,8.48
2022-09-18T05:15:21.955Z,8.52
2022-09-18T05:17:48.662Z,8.57
2022-09-18T05:20:15.971Z,8.65
2022-09-18T05:22:49.204Z,8.64
2022-09-18T05:25:16.133Z,8.63
2022-09-18T05:27:42.684Z,8.62
2022-09-18T05:30:09.817Z,8.55
2022-09-18T05:32:36.387Z,8.70
2022-09-18T05:35:03.190Z,8.72
2022-09-18T05:37:29.775Z,8.81
2022-09-18T05:39:56.541Z,8.87
2022-09-18T05:42:23.190Z,8.94
2022-09-18T05:44:49.738Z,8.90
2022-09-18T05:47:16.337Z,8.97
2022-09-18T05:49:42.944Z,8.82
2022-09-18T05:52:09.525Z,8.94
2022-09-18T05:54:36.555Z,9.15
2022-09-18T05:57:03.178Z,9.16
2022-09-18T05:59:29.763Z,9.13
2022-09-18T06:01:56.383Z,8.96
2022-09-18T06:04:23.012Z,9.10
2022-09-18T06:06:49.582Z,9.26
2022-09-18T06:09:16.536Z,9.00
2022-09-18T06:11:43.066Z,9.33
2022-09-18T06:14:09.637Z,9.39
2022-09-18T06:16:41.372Z,9.31
2022-09-18T06:19:08.917Z,9.39
2022-09-18T06:21:35.555Z,9.40
2022-09-18T06:24:02.313Z,9.33
2022-09-18T06:26:28.965Z,9.41
2022-09-18T06:28:55.537Z,9.44
2022-09-18T06:31:22.200Z,9.47
2022-09-18T06:33:49.269Z,9.60
2022-09-18T06:36:16.391Z,9.80
2022-09-18T06:38:43.008Z,9.97
2022-09-18T06:41:09.573Z,9.98
2022-09-18T06:43:36.329Z,9.93
2022-09-18T06:46:04.489Z,9.80
2022-09-18T06:48:31.654Z,9.73
2022-09-18T06:50:59.603Z,9.77
2022-09-18T06:53:27.023Z,9.74
2022-09-18T06:55:58.740Z,9.83
2022-09-18T06:58:25.483Z,9.92
2022-09-18T07:00:52.100Z,10.19
2022-09-18T07:03:18.684Z,10.10
2022-09-18T07:05:45.711Z,10.24
2022-09-18T07:08:21.105Z,10.30
2022-09-18T07:10:47.677Z,10.41
2022-09-18T07:13:14.268Z,10.55
2022-09-18T07:15:52.076Z,10.68
2022-09-18T07:18:18.963Z,10.69
2022-09-18T07:21:02.056Z,10.68
2022-09-18T07:23:31.131Z,10.64
2022-09-18T07:25:59.908Z,10.46
2022-09-18T07:28:26.469Z,10.48
2022-09-18T07:30:53.062Z,10.47
2022-09-18T07:33:19.879Z,10.39
2022-09-18T07:35:46.567Z,10.60
2022-09-18T07:38:13.399Z,10.46
2022-09-18T07:40:45.488Z,10.54
2022-09-18T07:43:12.242Z,10.76
2022-09-18T07:45:38.895Z,10.60
2022-09-18T07:48:06.840Z,10.76
2022-09-18T07:50:33.794Z,10.70
2022-09-18T07:53:05.561Z,10.93
2022-09-18T07:55:35.567Z,10.86
2022-09-18T07:58:05.801Z,10.97
2022-09-18T08:00:36.929Z,11.03
2022-09-18T08:03:11.744Z,11.30
2022-09-18T08:05:39.620Z,11.16
2022-09-18T08:08:08.301Z,11.40
2022-09-18T08:10:35.845Z,11.61
2022-09-18T08:13:03.757Z,11.52
2022-09-18T08:15:31.536Z,11.33
2022-09-18T08:17:58.281Z,11.22
2022-09-18T08:20:25.101Z,11.39
2022-09-18T08:22:51.957Z,11.68
2022-09-18T08:25:18.924Z,11.43
2022-09-18T08:27:45.530Z,11.17
2022-09-18T08:30:14.342Z,11.03
2022-09-18T08:32:41.092Z,10.68
2022-09-18T08:35:08.071Z,10.84
2022-09-18T08:37:34.877Z,11.30
2022-09-18T08:40:01.714Z,11.13
2022-09-18T08:42:42.160Z,11.23
2022-09-18T08:45:11.951Z,11.10
2022-09-18T08:47:54.917Z,11.23
2022-09-18T08:50:25.985Z,11.44
2022-09-18T08:53:04.774Z,11.36
2022-09-18T08:55:36.633Z,11.03
2022-09-18T08:58:08.670Z,10.95
2022-09-18T09:00:41.453Z,11.16
2022-09-18T09:03:15.009Z,11.37
2022-09-18T09:06:12.128Z,11.83
2022-09-18T09:09:00.070Z,12.26
2022-09-18T09:12:22.246Z,12.82
2022-09-18T09:15:16.165Z,12.60
2022-09-18T09:17:46.928Z,12.40
2022-09-18T09:20:19.465Z,12.26
2022-09-18T09:23:04.602Z,12.34
2022-09-18T09:25:31.836Z,12.39
2022-09-18T09:28:23.752Z,12.22
2022-09-18T09:30:56.807Z,12.23
2022-09-18T09:33:45.941Z,12.20
2022-09-18T09:36:15.874Z,12.13
2022-09-18T09:38:56.057Z,12.34
2022-09-18T09:41:39.112Z,12.52
2022-09-18T09:44:23.949Z,12.68
2022-09-18T09:47:21.789Z,12.38
2022-09-18T09:50:05.185Z,12.09
2022-09-18T09:52:32.174Z,12.00
2022-09-18T09:55:07.613Z,12.14
2022-09-18T09:57:52.579Z,12.06
2022-09-18T10:00:20.506Z,12.13
2022-09-18T10:02:56.227Z,12.36
2022-09-18T10:05:34.148Z,12.16
2022-09-18T10:08:12.793Z,11.92
2022-09-18T10:11:13.189Z,12.03
2022-09-18T10:13:55.305Z,12.08
2022-09-18T10:16:33.835Z,11.62
2022-09-18T10:19:01.359Z,11.57
2022-09-18T10:21:34.654Z,11.56
2022-09-18T10:24:06.151Z,11.54
2022-09-18T10:26:43.408Z,11.48
2022-09-18T10:29:10.864Z,11.51
2022-09-18T10:31:49.434Z,11.62
2022-09-18T10:34:41.005Z,11.93
2022-09-18T10:37:29.757Z,11.65
2022-09-18T10:39:59.932Z,11.85
2022-09-18T10:42:29.340Z,12.30
2022-09-18T10:45:01.775Z,12.13
2022-09-18T10:47:37.316Z,12.05
2022-09-18T10:50:06.649Z,11.88
2022-09-18T10:52:41.314Z,11.90
2022-09-18T10:55:08.358Z,11.74
2022-09-18T10:57:39.244Z,11.60
2022-09-18T11:00:25.897Z,11.87
2022-09-18T11:03:04.452Z,11.83
2022-09-18T11:05:39.221Z,12.12
2022-09-18T11:08:13.616Z,11.87
2022-09-18T11:10:40.478Z,11.92
2022-09-18T11:13:07.135Z,12.28
2022-09-18T11:15:36.295Z,12.52
2022-09-18T11:18:07.564Z,12.74
2022-09-18T11:20:42.259Z,12.82
2022-09-18T11:23:28.089Z,12.29
2022-09-18T11:26:15.485Z,12.50
2022-09-18T11:28:42.072Z,12.37
2022-09-18T11:31:16.083Z,12.48
2022-09-18T11:33:49.360Z,12.36
2022-09-18T11:36:24.388Z,12.38
2022-09-18T11:38:51.009Z,11.91
2022-09-18T11:41:34.001Z,11.78
2022-09-18T11:44:06.699Z,11.97
2022-09-18T11:46:50.331Z,12.17
2022-09-18T11:49:22.017Z,12.07
2022-09-18T11:51:58.689Z,12.25
2022-09-18T11:54:28.296Z,12.14
2022-09-18T11:56:59.603Z,12.17
2022-09-18T11:59:40.037Z,12.41
2022-09-18T12:02:54.453Z,12.45
2022-09-18T12:05:51.495Z,12.64
2022-09-18T12:09:08.834Z,12.44
2022-09-18T12:11:59.477Z,12.49
2022-09-18T12:14:50.044Z,12.51
2022-09-18T12:17:27.155Z,12.27
2022-09-18T12:19:59.457Z,12.14
2022-09-18T12:22:52.603Z,12.31
2022-09-18T12:25:28.772Z,12.26
2022-09-18T12:28:07.583Z,12.27
2022-09-18T12:30:47.002Z,12.24
2022-09-18T12:33:38.624Z,12.28
2022-09-18T12:36:08.093Z,12.38
2022-09-18T12:38:58.587Z,12.97
2022-09-18T12:41:52.466Z,13.25
2022-09-18T12:44:24.347Z,13.62
2022-09-18T12:47:18.557Z,13.86
2022-09-18T12:50:06.818Z,13.93
2022-09-18T12:53:10.103Z,13.61
2022-09-18T12:55:36.797Z,13.76
2022-09-18T12:58:20.831Z,13.86
2022-09-18T13:00:50.601Z,14.24
2022-09-18T13:03:25.291Z,14.29
2022-09-18T13:06:42.926Z,14.22
2022-09-18T13:09:29.269Z,14.16
2022-09-18T13:12:04.463Z,14.09
2022-09-18T13:14:42.892Z,14.02
2022-09-18T13:17:21.154Z,14.15
2022-09-18T13:20:19.882Z,14.23
2022-09-18T13:22:53.401Z,13.84
2022-09-18T13:25:32.898Z,13.66
2022-09-18T13:28:01.567Z,13.40
2022-09-18T13:30:30.543Z,13.55
2022-09-18T13:32:59.092Z,13.27
2022-09-18T13:35:37.606Z,12.95
2022-09-18T13:38:19.851Z,12.70
2022-09-18T13:40:59.606Z,12.53
2022-09-18T13:43:28.842Z,12.69
2022-09-18T13:46:06.881Z,12.69
2022-09-18T13:48:40.009Z,12.88
2022-09-18T13:51:18.804Z,12.93
2022-09-18T13:53:45.531Z,13.02
2022-09-18T13:56:16.441Z,12.99
2022-09-18T13:58:53.447Z,13.06
2022-09-18T14:01:41.975Z,13.41
2022-09-18T14:04:44.318Z,13.83
2022-09-18T14:07:17.006Z,14.01
2022-09-18T14:09:46.326Z,14.26
2022-09-18T14:12:15.223Z,13.79
2022-09-18T14:14:43.608Z,13.44
2022-09-18T14:17:15.545Z,13.69
2022-09-18T14:19:46.046Z,13.56
2022-09-18T14:22:25.507Z,13.20
2022-09-18T14:24:52.084Z,13.21
2022-09-18T14:27:57.144Z,13.10
2022-09-18T14:30:29.320Z,13.22
2022-09-18T14:33:02.376Z,13.31
2022-09-18T14:35:42.128Z,13.33
2022-09-18T14:38:24.141Z,13.21
2022-09-18T14:40:58.050Z,13.33
2022-09-18T14:43:25.517Z,13.20
2022-09-18T14:45:53.396Z,12.98
2022-09-18T14:48:25.936Z,12.90
2022-09-18T14:51:01.263Z,12.98
2022-09-18T14:53:29.086Z,12.97
2022-09-18T14:56:01.217Z,13.07
2022-09-18T14:58:31.205Z,13.39
2022-09-18T15:00:58.577Z,13.33
2022-09-18T15:03:31.859Z,13.77
2022-09-18T15:06:09.806Z,13.86
2022-09-18T15:08:37.795Z,13.80
2022-09-18T15:11:05.393Z,14.03
2022-09-18T15:13:37.776Z,14.03
2022-09-18T15:16:05.421Z,13.88
2022-09-18T15:18:42.019Z,13.68
2022-09-18T15:21:32.839Z,13.49
2022-09-18T15:24:02.487Z,13.63
2022-09-18T15:26:38.883Z,13.61
2022-09-18T15:29:14.876Z,13.75
2022-09-18T15:31:41.823Z,13.80
2022-09-18T15:34:17.350Z,13.85
2022-09-18T15:36:44.523Z,13.78
2022-09-18T15:39:33.529Z,13.81
2022-09-18T15:42:29.688Z,13.63
2022-09-18T15:45:02.675Z,13.38
2022-09-18T15:47:29.269Z,13.41
2022-09-18T15:49:59.495Z,13.24
2022-09-18T15:52:35.242Z,13.25
2022-09-18T15:55:15.955Z,13.25
2022-09-18T15:57:50.480Z,13.16
2022-09-18T16:00:19.101Z,13.27
2022-09-18T16:02:59.020Z,13.44
2022-09-18T16:05:28.017Z,13.29
2022-09-18T16:07:59.633Z,13.26
2022-09-18T16:10:35.123Z,12.83
2022-09-18T16:13:11.818Z,12.61
2022-09-18T16:15:38.420Z,12.51
2022-09-18T16:18:29.111Z,12.29
2022-09-18T16:20:57.662Z,12.33
2022-09-18T16:23:30.131Z,12.23
2022-09-18T16:26:05.881Z,12.11
2022-09-18T16:28:40.430Z,12.14
2022-09-18T16:31:07.693Z,12.01
2022-09-18T16:33:35.185Z,11.97
2022-09-18T16:36:12.290Z,11.99
2022-09-18T16:38:38.862Z,11.87
2022-09-18T16:41:05.475Z,11.76
2022-09-18T16:43:32.059Z,11.74
2022-09-18T16:45:58.643Z,11.53
2022-09-18T16:48:25.244Z,11.39
2022-09-18T16:50:51.837Z,11.27
2022-09-18T16:53:18.746Z,11.21
2022-09-18T16:55:49.893Z,11.24
2022-09-18T16:58:17.968Z,11.13
2022-09-18T17:00:44.642Z,11.05
2022-09-18T17:03:11.709Z,10.99
2022-09-18T17:05:38.658Z,10.89
2022-09-18T17:08:05.561Z,10.79
2022-09-18T17:10:32.867Z,10.72
2022-09-18T17:12:59.581Z,10.64
2022-09-18T17:15:26.943Z,10.41
2022-09-18T17:17:53.819Z,10.52
2022-09-18T17:20:20.976Z,10.51
2022-09-18T17:22:48.572Z,10.56
2022-09-18T17:25:15.495Z,10.47
2022-09-18T17:27:43.819Z,10.61
2022-09-18T17:30:11.706Z,10.67
2022-09-18T17:32:38.471Z,10.65
2022-09-18T17:35:05.447Z,10.65
2022-09-18T17:37:32.653Z,10.50
2022-09-18T17:40:02.735Z,10.53
2022-09-18T17:42:29.375Z,10.43
2022-09-18T17:44:56.599Z,10.42
2022-09-18T17:47:24.064Z,10.42
2022-09-18T17:49:50.733Z,10.34
2022-09-18T17:52:17.573Z,10.39
2022-09-18T17:54:44.219Z,10.36
2022-09-18T17:57:13.815Z,10.34
2022-09-18T17:59:42.754Z,10.34
2022-09-18T18:02:11.226Z,10.30
2022-09-18T18:04:38.427Z,10.36
2022-09-18T18:07:06.252Z,10.35
2022-09-18T18:09:36.016Z,10.37
2022-09-18T18:12:03.311Z,10.29
2022-09-18T18:14:31.294Z,10.34
2022-09-18T18:17:00.726Z,10.34
2022-09-18T18:19:28.067Z,10.28
2022-09-18T18:21:54.689Z,10.20
2022-09-18T18:24:21.558Z,10.19
2022-09-18T18:26:48.722Z,10.12
2022-09-18T18:29:17.895Z,10.09
2022-09-18T18:31:47.940Z,10.06
2022-09-18T18:34:22.111Z,10.09
2022-09-18T18:36:50.424Z,9.97
2022-09-18T18:39:20.021Z,9.97
2022-09-18T18:41:47.157Z,9.90
2022-09-18T18:44:14.359Z,9.89
2022-09-18T18:46:41.152Z,9.97
2022-09-18T18:49:10.439Z,9.95
2022-09-18T18:51:43.153Z,10.04
2022-09-18T18:54:10.410Z,10.01
2022-09-18T18:56:38.780Z,9.77
2022-09-18T18:59:08.900Z,9.50
2022-09-18T19:01:36.242Z,9.13
2022-09-18T19:04:09.132Z,8.72
2022-09-18T19:06:38.978Z,8.55
2022-09-18T19:09:19.265Z,8.35
2022-09-18T19:11:50.632Z,8.29
2022-09-18T19:14:23.027Z,8.12
2022-09-18T19:16:50.028Z,7.94
2022-09-18T19:19:19.984Z,7.77
2022-09-18T19:21:47.587Z,7.77
2022-09-18T19:24:15.758Z,7.77
2022-09-18T19:26:43.295Z,7.80
2022-09-18T19:29:13.606Z,7.79
2022-09-18T19:31:43.190Z,7.63
2022-09-18T19:34:12.479Z,7.65
2022-09-18T19:36:39.896Z,7.60
2022-09-18T19:39:10.444Z,7.61
2022-09-18T19:41:52.374Z,7.81
2022-09-18T19:44:28.496Z,7.76
2022-09-18T19:46:57.875Z,7.76
2022-09-18T19:49:32.108Z,7.81
2022-09-18T19:51:58.824Z,7.91
2022-09-18T19:54:25.494Z,7.86
2022-09-18T19:56:52.563Z,7.79
2022-09-18T19:59:19.217Z,7.76
2022-09-18T20:01:45.887Z,7.72
2022-09-18T20:04:12.511Z,7.76
2022-09-18T20:06:40.616Z,7.84
2022-09-18T20:09:07.840Z,7.85
2022-09-18T20:11:35.323Z,7.80
2022-09-18T20:14:01.974Z,7.86
2022-09-18T20:16:28.621Z,7.99
2022-09-18T20:18:55.297Z,7.92
2022-09-18T20:21:22.171Z,7.80
2022-09-18T20:23:48.871Z,7.76
2022-09-18T20:26:18.397Z,7.77
2022-09-18T20:28:45.053Z,7.60
2022-09-18T20:31:14.317Z,7.77
2022-09-18T20:33:41.056Z,7.66
2022-09-18T20:36:11.205Z,7.67
2022-09-18T20:38:40.124Z,7.61
2022-09-18T20:41:11.393Z,7.41
2022-09-18T20:43:39.695Z,7.49
2022-09-18T20:46:08.377Z,7.58
2022-09-18T20:48:39.276Z,7.57
2022-09-18T20:51:08.693Z,7.60
2022-09-18T20:53:39.870Z,7.57
2022-09-18T20:56:12.676Z,7.56
2022-09-18T20:58:42.322Z,7.42
2022-09-18T21:01:11.348Z,7.42
2022-09-18T21:03:40.009Z,7.27
2022-09-18T21:06:21.738Z,7.26
2022-09-18T21:08:49.176Z,7.22
2022-09-18T21:11:18.691Z,7.22
2022-09-18T21:13:48.827Z,7.18
2022-09-18T21:16:20.890Z,7.21
2022-09-18T21:18:49.143Z,7.28
2022-09-18T21:21:16.984Z,7.25
2022-09-18T21:24:02.604Z,7.09
2022-09-18T21:26:30.844Z,7.02
2022-09-18T21:29:11.044Z,6.93
2022-09-18T21:31:42.381Z,6.95
2022-09-18T21:34:12.002Z,7.05
2022-09-18T21:36:41.667Z,7.09
2022-09-18T21:39:10.106Z,7.08
2022-09-18T21:41:39.263Z,6.99
2022-09-18T21:44:09.027Z,6.94
2022-09-18T21:46:39.260Z,6.92
2022-09-18T21:49:08.901Z,6.85
2022-09-18T21:51:37.197Z,6.83
2022-09-18T21:54:05.613Z,6.76
2022-09-18T21:56:33.511Z,6.48
2022-09-18T21:59:00.455Z,6.64
2022-09-18T22:01:31.142Z,6.68
2022-09-18T22:04:00.808Z,6.74
2022-09-18T22:06:29.475Z,6.73
2022-09-18T22:08:57.667Z,6.76
2022-09-18T22:11:27.345Z,6.70
2022-09-18T22:13:55.866Z,6.67
2022-09-18T22:16:32.234Z,6.75
2022-09-18T22:18:59.233Z,6.54
2022-09-18T22:21:31.565Z,6.61
2022-09-18T22:24:09.192Z,6.48
2022-09-18T22:26:39.037Z,6.51
2022-09-18T22:29:08.354Z,6.56
2022-09-18T22:31:36.401Z,6.60
2022-09-18T22:34:03.885Z,6.65
2022-09-18T22:36:30.533Z,6.75
2022-09-18T22:38:57.179Z,6.81
2022-09-18T22:41:23.917Z,6.85
2022-09-18T22:43:55.175Z,6.87
2022-09-18T22:46:23.831Z,6.92
2022-09-18T22:48:51.871Z,6.99
2022-09-18T22:51:21.613Z,7.01
2022-09-18T22:53:54.313Z,7.04
2022-09-18T22:56:21.866Z,7.03
2022-09-18T22:58:48.673Z,6.97
2022-09-18T23:01:19.183Z,6.98
2022-09-18T23:03:49.193Z,6.94
2022-09-18T23:06:17.187Z,6.85
2022-09-18T23:08:44.894Z,6.67
2022-09-18T23:11:14.585Z,6.78
2022-09-18T23:13:46.310Z,6.72
2022-09-18T23:16:13.157Z,6.56
2022-09-18T23:18:40.640Z,6.70
2022-09-18T23:21:11.310Z,6.65
2022-09-18T23:23:42.650Z,6.49
2022-09-18T23:26:19.350Z,6.34
2022-09-18T23:28:47.512Z,6.25
2022-09-18T23:31:19.668Z,6.21
2022-09-18T23:33:52.014Z,6.08
2022-09-18T23:36:30.487Z,6.09
2022-09-18T23:39:01.784Z,5.95
2022-09-18T23:41:38.313Z,5.97
2022-09-18T23:44:08.194Z,5.87
2022-09-18T23:46:35.349Z,5.82
2022-09-18T23:49:02.069Z,5.79
2022-09-18T23:51:31.184Z,5.84
2022-09-18T23:54:00.622Z,5.82
2022-09-18T23:56:29.659Z,5.64
2022-09-18T23:58:59.174Z,5.63
